createdAt,value
2019-03-20T00:00:19.252Z,10.90
2019-03-20T00:02:47.765Z,16.73
2019-03-20T00:05:16.168Z,10.50
2019-03-20T00:07:44.599Z,10.47
2019-03-20T00:10:13.142Z,12.57
2019-03-20T00:12:41.548Z,11.07
2019-03-20T00:15:16.369Z,10.50
2019-03-20T00:17:44.889Z,9.93
2019-03-20T00:20:14.456Z,10.83
2019-03-20T00:22:43.427Z,11.20
2019-03-20T00:25:12.804Z,13.03
2019-03-20T00:27:41.470Z,13.53
2019-03-20T00:30:17.807Z,10.97
2019-03-20T00:32:46.562Z,10.00
2019-03-20T00:35:15.121Z,9.20
2019-03-20T00:37:43.568Z,9.03
2019-03-20T00:40:14.313Z,12.80
2019-03-20T00:42:42.802Z,10.40
2019-03-20T00:45:13.683Z,11.57
2019-03-20T00:47:42.110Z,10.97
2019-03-20T00:50:15.614Z,10.97
2019-03-20T00:52:44.173Z,9.30
2019-03-20T00:55:14.048Z,9.70
2019-03-20T00:57:42.696Z,14.10
2019-03-20T01:00:14.565Z,19.90
2019-03-20T01:02:43.055Z,11.63
2019-03-20T01:05:12.812Z,8.80
2019-03-20T01:07:41.613Z,13.90
2019-03-20T01:10:13.073Z,13.77
2019-03-20T01:12:41.653Z,12.20
2019-03-20T01:15:10.512Z,11.57
2019-03-20T01:17:39.007Z,9.70
2019-03-20T01:20:18.209Z,9.23
2019-03-20T01:22:46.976Z,8.83
2019-03-20T01:25:15.941Z,8.93
2019-03-20T01:27:44.442Z,9.03
2019-03-20T01:30:30.996Z,8.10
2019-03-20T01:33:00.836Z,7.93
2019-03-20T01:35:29.387Z,9.57
2019-03-20T01:37:57.897Z,8.03
2019-03-20T01:40:27.720Z,14.60
2019-03-20T01:42:56.189Z,11.37
2019-03-20T01:45:24.596Z,11.43
2019-03-20T01:47:53.047Z,9.07
2019-03-20T01:50:21.527Z,9.63
2019-03-20T01:52:50.019Z,9.43
2019-03-20T01:55:18.506Z,10.80
2019-03-20T01:57:47.007Z,12.07
2019-03-20T02:00:15.566Z,11.30
2019-03-20T02:02:44.173Z,10.33
2019-03-20T02:05:12.657Z,11.33
2019-03-20T02:07:41.098Z,11.63
2019-03-20T02:10:14.536Z,13.83
2019-03-20T02:12:43.128Z,14.80
2019-03-20T02:15:16.175Z,13.50
2019-03-20T02:17:44.752Z,12.53
2019-03-20T02:20:15.604Z,12.00
2019-03-20T02:22:44.202Z,10.37
2019-03-20T02:25:14.325Z,14.53
2019-03-20T02:27:42.854Z,10.00
2019-03-20T02:30:20.730Z,11.53
2019-03-20T02:32:49.168Z,11.87
2019-03-20T02:35:17.661Z,13.03
2019-03-20T02:37:46.225Z,11.73
2019-03-20T02:40:15.519Z,11.80
2019-03-20T02:42:44.001Z,10.40
2019-03-20T02:45:14.470Z,11.70
2019-03-20T02:47:43.112Z,10.63
2019-03-20T02:50:12.525Z,11.20
2019-03-20T02:52:40.929Z,10.50
2019-03-20T02:55:10.407Z,12.53
2019-03-20T02:57:38.819Z,14.73
2019-03-20T03:00:12.866Z,11.00
2019-03-20T03:02:41.290Z,11.93
2019-03-20T03:05:10.251Z,12.97
2019-03-20T03:07:38.735Z,10.50
2019-03-20T03:10:09.831Z,14.07
2019-03-20T03:12:38.385Z,11.50
2019-03-20T03:15:09.271Z,8.17
2019-03-20T03:17:37.705Z,9.63
2019-03-20T03:20:14.848Z,12.63
2019-03-20T03:22:43.457Z,9.77
2019-03-20T03:25:13.030Z,8.23
2019-03-20T03:27:41.476Z,10.40
2019-03-20T03:30:16.472Z,15.43
2019-03-20T03:32:45.123Z,10.40
2019-03-20T03:35:17.760Z,7.50
2019-03-20T03:37:44.000Z,10.60
2019-03-20T03:40:19.507Z,8.03
2019-03-20T03:42:47.941Z,11.80
2019-03-20T03:45:17.308Z,9.70
2019-03-20T03:47:46.116Z,7.90
2019-03-20T03:50:14.967Z,8.10
2019-03-20T03:52:43.633Z,11.63
2019-03-20T03:55:13.193Z,13.93
2019-03-20T03:57:41.698Z,7.97
2019-03-20T04:00:14.940Z,11.43
2019-03-20T04:02:43.507Z,11.00
2019-03-20T04:05:11.985Z,9.50
2019-03-20T04:07:40.488Z,11.13
2019-03-20T04:10:13.090Z,9.33
2019-03-20T04:12:41.657Z,8.40
2019-03-20T04:15:14.096Z,9.00
2019-03-20T04:17:42.663Z,7.90
2019-03-20T04:20:20.608Z,10.30
2019-03-20T04:22:49.104Z,7.93
2019-03-20T04:25:17.997Z,8.37
2019-03-20T04:27:46.444Z,9.80
2019-03-20T04:30:18.199Z,8.87
2019-03-20T04:32:46.764Z,7.60
2019-03-20T04:35:15.505Z,7.83
2019-03-20T04:37:43.938Z,10.00
2019-03-20T04:40:13.867Z,8.97
2019-03-20T04:42:42.289Z,9.90
2019-03-20T04:45:12.794Z,7.53
2019-03-20T04:47:41.408Z,9.00
2019-03-20T04:50:11.377Z,8.00
2019-03-20T04:52:39.861Z,9.73
2019-03-20T04:55:09.030Z,8.00
2019-03-20T04:57:37.449Z,8.60
2019-03-20T05:00:17.145Z,7.73
2019-03-20T05:02:45.574Z,11.07
2019-03-20T05:05:14.266Z,9.97
2019-03-20T05:07:42.668Z,10.77
2019-03-20T05:10:12.861Z,11.07
2019-03-20T05:12:41.421Z,8.80
2019-03-20T05:15:11.401Z,8.90
2019-03-20T05:17:39.885Z,11.30
2019-03-20T05:20:11.391Z,9.83
2019-03-20T05:22:39.861Z,14.20
2019-03-20T05:25:08.571Z,8.87
2019-03-20T05:27:36.993Z,8.37
2019-03-20T05:30:08.449Z,9.90
2019-03-20T05:32:40.354Z,10.60
2019-03-20T05:35:09.032Z,11.70
2019-03-20T05:37:37.480Z,12.90
2019-03-20T05:40:13.660Z,10.80
2019-03-20T05:42:42.126Z,10.43
2019-03-20T05:45:14.453Z,15.97
2019-03-20T05:47:42.882Z,11.90
2019-03-20T05:50:16.007Z,10.77
2019-03-20T05:52:44.429Z,10.67
2019-03-20T05:55:13.502Z,12.80
2019-03-20T05:57:42.050Z,12.00
2019-03-20T06:00:15.592Z,13.33
2019-03-20T06:02:44.037Z,13.37
2019-03-20T06:05:12.637Z,14.80
2019-03-20T06:07:41.081Z,11.37
2019-03-20T06:10:12.066Z,12.60
2019-03-20T06:12:40.556Z,13.73
2019-03-20T06:15:09.309Z,11.50
2019-03-20T06:17:37.841Z,11.33
2019-03-20T06:20:14.207Z,11.70
2019-03-20T06:22:42.800Z,10.37
2019-03-20T06:25:13.084Z,11.43
2019-03-20T06:27:41.611Z,14.30
2019-03-20T06:30:18.017Z,13.20
2019-03-20T06:32:46.471Z,14.40
2019-03-20T06:35:15.036Z,13.50
2019-03-20T06:37:43.566Z,14.40
2019-03-20T06:40:15.704Z,13.23
2019-03-20T06:42:44.246Z,14.17
2019-03-20T06:45:19.503Z,13.17
2019-03-20T06:47:48.015Z,15.10
2019-03-20T06:50:18.545Z,17.97
2019-03-20T06:52:47.115Z,18.40
2019-03-20T06:55:15.525Z,15.67
2019-03-20T06:57:44.096Z,18.53
2019-03-20T07:00:42.381Z,17.87
2019-03-20T07:03:33.438Z,18.20
2019-03-20T07:06:07.863Z,18.87
2019-03-20T07:08:39.405Z,21.23
2019-03-20T07:11:08.413Z,18.77
2019-03-20T07:13:36.914Z,17.33
2019-03-20T07:16:06.306Z,18.13
2019-03-20T07:18:34.894Z,17.77
2019-03-20T07:21:03.610Z,16.53
2019-03-20T07:23:32.056Z,17.47
2019-03-20T07:26:00.500Z,19.17
2019-03-20T07:28:28.934Z,14.90
2019-03-20T07:30:57.373Z,17.20
2019-03-20T07:33:25.868Z,14.90
2019-03-20T07:35:54.367Z,14.93
2019-03-20T07:38:22.836Z,15.73
2019-03-20T07:40:51.298Z,16.70
2019-03-20T07:43:19.774Z,18.63
2019-03-20T07:45:48.215Z,15.17
2019-03-20T07:48:22.052Z,16.53
2019-03-20T07:50:46.850Z,14.57
2019-03-20T07:53:15.289Z,14.13
2019-03-20T07:55:43.822Z,13.97
2019-03-20T07:58:12.296Z,14.03
2019-03-20T08:00:40.832Z,14.23
2019-03-20T08:03:09.317Z,14.40
2019-03-20T08:05:37.799Z,13.60
2019-03-20T08:08:07.636Z,13.03
2019-03-20T08:10:36.390Z,12.63
2019-03-20T08:13:04.877Z,12.90
2019-03-20T08:15:33.344Z,12.73
2019-03-20T08:18:01.797Z,17.00
2019-03-20T08:20:31.082Z,12.53
2019-03-20T08:22:59.505Z,11.57
2019-03-20T08:25:27.995Z,10.27
2019-03-20T08:27:56.432Z,11.83
2019-03-20T08:30:24.873Z,9.57
2019-03-20T08:32:53.305Z,10.70
2019-03-20T08:35:23.331Z,9.83
2019-03-20T08:37:51.805Z,14.37
2019-03-20T08:40:20.204Z,8.47
2019-03-20T08:42:48.713Z,8.17
2019-03-20T08:45:18.071Z,13.13
2019-03-20T08:47:46.665Z,9.30
2019-03-20T08:50:22.133Z,12.13
2019-03-20T08:52:50.653Z,9.93
2019-03-20T08:55:20.007Z,21.47
2019-03-20T08:57:49.009Z,9.27
2019-03-20T09:00:24.552Z,9.37
2019-03-20T09:02:53.222Z,8.53
2019-03-20T09:05:21.807Z,10.30
2019-03-20T09:07:50.379Z,9.43
2019-03-20T09:10:23.817Z,12.53
2019-03-20T09:12:52.400Z,9.83
2019-03-20T09:15:21.405Z,10.23
2019-03-20T09:17:49.892Z,9.67
2019-03-20T09:20:23.200Z,12.17
2019-03-20T09:22:51.717Z,10.87
2019-03-20T09:25:23.800Z,10.00
2019-03-20T09:27:52.298Z,10.70
2019-03-20T09:30:21.816Z,10.73
2019-03-20T09:32:50.370Z,8.57
2019-03-20T09:35:19.025Z,9.73
2019-03-20T09:37:52.327Z,9.83
2019-03-20T09:40:23.847Z,11.73
2019-03-20T09:42:52.492Z,9.47
2019-03-20T09:45:22.931Z,12.73
2019-03-20T09:47:51.427Z,9.17
2019-03-20T09:50:29.397Z,9.10
2019-03-20T09:52:57.902Z,6.50
2019-03-20T09:55:26.360Z,7.27
2019-03-20T09:57:54.760Z,8.40
2019-03-20T10:00:27.758Z,8.63
2019-03-20T10:02:56.255Z,5.43
2019-03-20T10:05:24.951Z,4.67
2019-03-20T10:07:53.434Z,8.70
2019-03-20T10:10:27.550Z,6.43
2019-03-20T10:12:56.029Z,6.97
2019-03-20T10:15:26.041Z,4.53
2019-03-20T10:17:54.563Z,5.53
2019-03-20T10:20:23.532Z,4.40
2019-03-20T10:22:52.116Z,6.10
2019-03-20T10:25:20.644Z,6.20
2019-03-20T10:27:51.703Z,4.87
2019-03-20T10:30:23.948Z,9.00
2019-03-20T10:32:52.514Z,5.67
2019-03-20T10:35:21.294Z,4.27
2019-03-20T10:37:49.741Z,6.50
2019-03-20T10:40:24.677Z,4.60
2019-03-20T10:42:53.166Z,5.53
2019-03-20T10:45:21.915Z,8.40
2019-03-20T10:47:52.890Z,5.60
2019-03-20T10:50:25.572Z,2.50
2019-03-20T10:52:54.079Z,7.40
2019-03-20T10:55:22.566Z,4.47
2019-03-20T10:57:51.096Z,5.97
2019-03-20T11:00:27.121Z,3.50
2019-03-20T11:02:55.613Z,4.00
2019-03-20T11:05:24.302Z,4.20
2019-03-20T11:07:52.817Z,6.50
2019-03-20T11:10:25.265Z,4.33
2019-03-20T11:12:54.244Z,4.93
2019-03-20T11:15:23.468Z,3.93
2019-03-20T11:17:52.101Z,5.17
2019-03-20T11:20:21.866Z,4.00
2019-03-20T11:22:50.364Z,6.93
2019-03-20T11:25:28.538Z,6.50
2019-03-20T11:27:57.167Z,4.30
2019-03-20T11:30:30.461Z,3.23
2019-03-20T11:32:59.197Z,4.70
2019-03-20T11:35:27.670Z,4.80
2019-03-20T11:37:56.204Z,5.23
2019-03-20T11:40:32.378Z,4.63
2019-03-20T11:43:00.877Z,6.47
2019-03-20T11:45:29.398Z,5.40
2019-03-20T11:47:57.972Z,7.40
2019-03-20T11:50:38.271Z,7.20
2019-03-20T11:53:08.638Z,4.20
2019-03-20T11:55:37.623Z,7.17
2019-03-20T11:58:06.938Z,4.40
2019-03-20T12:00:35.582Z,5.33
2019-03-20T12:03:04.531Z,4.23
2019-03-20T12:05:33.010Z,7.10
2019-03-20T12:08:01.549Z,5.03
2019-03-20T12:10:33.472Z,8.33
2019-03-20T12:13:01.999Z,7.30
2019-03-20T12:15:30.544Z,5.60
2019-03-20T12:17:59.042Z,4.07
2019-03-20T12:20:27.654Z,5.67
2019-03-20T12:22:56.208Z,6.20
2019-03-20T12:25:28.886Z,5.10
2019-03-20T12:27:57.522Z,6.83
2019-03-20T12:30:30.827Z,9.33
2019-03-20T12:32:59.368Z,5.43
2019-03-20T12:35:33.409Z,4.97
2019-03-20T12:38:13.316Z,4.70
2019-03-20T12:40:32.096Z,6.43
2019-03-20T12:43:00.760Z,3.87
2019-03-20T12:45:37.280Z,6.43
2019-03-20T12:48:10.861Z,6.00
2019-03-20T12:50:39.382Z,3.90
2019-03-20T12:53:10.133Z,4.63
2019-03-20T12:55:38.589Z,5.27
2019-03-20T12:58:06.976Z,6.73
2019-03-20T13:00:35.561Z,4.50
2019-03-20T13:03:04.047Z,5.10
2019-03-20T13:05:32.551Z,5.30
2019-03-20T13:08:05.767Z,2.97
2019-03-20T13:10:31.176Z,5.50
2019-03-20T13:12:59.711Z,3.93
2019-03-20T13:15:28.820Z,4.73
2019-03-20T13:17:57.505Z,4.00
2019-03-20T13:20:26.316Z,5.93
2019-03-20T13:23:03.029Z,5.27
2019-03-20T13:25:31.601Z,7.73
2019-03-20T13:28:00.029Z,4.73
2019-03-20T13:30:53.653Z,4.83
2019-03-20T13:33:26.141Z,6.90
2019-03-20T13:35:52.227Z,5.20
2019-03-20T13:38:20.727Z,3.80
2019-03-20T13:40:49.137Z,4.33
2019-03-20T13:43:17.590Z,4.50
2019-03-20T13:45:46.069Z,4.30
2019-03-20T13:48:14.505Z,2.73
2019-03-20T13:50:42.952Z,3.60
2019-03-20T13:53:11.512Z,5.70
2019-03-20T13:55:40.012Z,6.23
2019-03-20T13:58:08.453Z,3.13
2019-03-20T14:00:36.862Z,4.50
2019-03-20T14:03:05.359Z,3.50
2019-03-20T14:05:33.792Z,3.90
2019-03-20T14:08:02.384Z,7.33
2019-03-20T14:10:31.824Z,6.17
2019-03-20T14:13:00.349Z,5.00
2019-03-20T14:15:28.780Z,5.60
2019-03-20T14:17:57.203Z,5.53
2019-03-20T14:20:27.669Z,6.57
2019-03-20T14:22:56.361Z,3.77
2019-03-20T14:25:25.023Z,4.03
2019-03-20T14:27:53.721Z,3.97
2019-03-20T14:30:29.360Z,2.67
2019-03-20T14:32:57.957Z,4.30
2019-03-20T14:35:26.448Z,3.90
2019-03-20T14:37:54.940Z,3.07
2019-03-20T14:40:37.114Z,5.57
2019-03-20T14:43:04.563Z,7.20
2019-03-20T14:45:33.173Z,5.10
2019-03-20T14:48:01.657Z,5.40
2019-03-20T14:50:32.023Z,4.27
2019-03-20T14:53:00.643Z,4.67
2019-03-20T14:55:29.201Z,5.07
2019-03-20T14:57:57.612Z,6.23
2019-03-20T15:00:29.851Z,5.47
2019-03-20T15:02:58.414Z,3.30
2019-03-20T15:05:26.855Z,4.53
2019-03-20T15:07:55.278Z,3.20
2019-03-20T15:10:24.962Z,7.63
2019-03-20T15:12:54.241Z,3.80
2019-03-20T15:15:25.781Z,4.70
2019-03-20T15:17:54.291Z,5.47
2019-03-20T15:20:22.732Z,4.10
2019-03-20T15:22:51.243Z,3.23
2019-03-20T15:25:19.665Z,5.10
2019-03-20T15:27:48.077Z,6.17
2019-03-20T15:30:19.139Z,6.33
2019-03-20T15:32:47.561Z,4.40
2019-03-20T15:35:16.089Z,8.30
2019-03-20T15:37:44.534Z,3.60
2019-03-20T15:40:15.758Z,4.83
2019-03-20T15:42:44.285Z,6.60
2019-03-20T15:45:16.664Z,9.20
2019-03-20T15:47:45.487Z,4.40
2019-03-20T15:50:16.589Z,3.27
2019-03-20T15:52:45.106Z,5.30
2019-03-20T15:55:17.218Z,4.53
2019-03-20T15:57:45.673Z,4.93
2019-03-20T16:00:17.032Z,3.17
2019-03-20T16:02:45.727Z,6.77
2019-03-20T16:05:14.198Z,6.00
2019-03-20T16:07:42.721Z,5.53
2019-03-20T16:10:19.026Z,4.60
2019-03-20T16:12:47.604Z,4.67
2019-03-20T16:15:18.068Z,5.00
2019-03-20T16:17:46.573Z,2.70
2019-03-20T16:20:15.639Z,5.60
2019-03-20T16:22:44.151Z,3.23
2019-03-20T16:25:17.302Z,5.40
2019-03-20T16:27:45.753Z,5.47
2019-03-20T16:30:22.340Z,3.70
2019-03-20T16:32:50.807Z,4.43
2019-03-20T16:35:19.321Z,5.23
2019-03-20T16:37:47.828Z,4.53
2019-03-20T16:40:18.703Z,6.03
2019-03-20T16:42:47.243Z,6.97
2019-03-20T16:45:18.440Z,5.67
2019-03-20T16:47:46.918Z,8.03
2019-03-20T16:50:18.455Z,4.30
2019-03-20T16:52:46.883Z,4.63
2019-03-20T16:55:16.038Z,5.37
2019-03-20T16:57:44.528Z,2.47
2019-03-20T17:00:20.869Z,7.20
2019-03-20T17:02:49.355Z,5.20
2019-03-20T17:05:17.978Z,4.63
2019-03-20T17:07:46.391Z,4.97
2019-03-20T17:10:17.903Z,5.77
2019-03-20T17:12:46.418Z,3.90
2019-03-20T17:15:17.484Z,8.73
2019-03-20T17:17:45.936Z,5.60
2019-03-20T17:20:14.554Z,6.07
2019-03-20T17:22:42.980Z,9.30
2019-03-20T17:25:12.387Z,10.33
2019-03-20T17:27:40.995Z,5.43
2019-03-20T17:30:20.897Z,5.83
2019-03-20T17:32:49.611Z,5.07
2019-03-20T17:35:18.205Z,3.80
2019-03-20T17:37:46.832Z,3.20
2019-03-20T17:40:22.769Z,6.13
2019-03-20T17:42:51.403Z,7.80
2019-03-20T17:45:21.508Z,5.73
2019-03-20T17:47:49.950Z,5.77
2019-03-20T17:50:26.134Z,2.90
2019-03-20T17:52:54.663Z,8.23
2019-03-20T17:55:23.068Z,5.20
2019-03-20T17:57:51.868Z,7.27
2019-03-20T18:00:24.888Z,9.70
2019-03-20T18:02:53.787Z,17.23
2019-03-20T18:05:22.300Z,8.57
2019-03-20T18:07:50.828Z,7.23
2019-03-20T18:10:19.337Z,7.93
2019-03-20T18:12:47.808Z,8.03
2019-03-20T18:15:17.075Z,5.23
2019-03-20T18:17:46.453Z,10.70
2019-03-20T18:20:16.589Z,9.73
2019-03-20T18:22:45.124Z,8.80
2019-03-20T18:25:14.221Z,9.43
2019-03-20T18:27:42.826Z,10.30
2019-03-20T18:30:29.316Z,7.03
2019-03-20T18:32:57.890Z,7.83
2019-03-20T18:35:26.382Z,11.63
2019-03-20T18:37:54.915Z,7.23
2019-03-20T18:40:27.248Z,7.63
2019-03-20T18:42:55.707Z,9.20
2019-03-20T18:45:27.275Z,7.07
2019-03-20T18:47:55.792Z,7.83
2019-03-20T18:50:24.560Z,8.77
2019-03-20T18:52:53.469Z,7.87
2019-03-20T18:55:21.972Z,8.47
2019-03-20T18:57:50.466Z,10.80
2019-03-20T19:00:24.552Z,14.33
2019-03-20T19:02:55.025Z,13.50
2019-03-20T19:05:32.370Z,11.40
2019-03-20T19:08:00.868Z,15.43
2019-03-20T19:10:29.495Z,11.13
2019-03-20T19:12:58.017Z,10.43
2019-03-20T19:15:26.598Z,12.73
2019-03-20T19:17:55.057Z,11.40
2019-03-20T19:20:23.671Z,18.70
2019-03-20T19:22:52.140Z,17.03
2019-03-20T19:25:20.785Z,17.83
2019-03-20T19:27:49.354Z,13.13
2019-03-20T19:30:20.327Z,12.60
2019-03-20T19:32:48.985Z,13.70
2019-03-20T19:35:17.541Z,9.20
2019-03-20T19:37:45.990Z,30.13
2019-03-20T19:40:20.570Z,12.23
2019-03-20T19:42:49.165Z,14.67
2019-03-20T19:45:18.369Z,18.83
2019-03-20T19:47:47.018Z,10.60
2019-03-20T19:50:20.156Z,13.93
2019-03-20T19:52:48.738Z,15.87
2019-03-20T19:55:17.612Z,14.77
2019-03-20T19:57:46.385Z,14.17
2019-03-20T20:00:23.218Z,11.47
2019-03-20T20:02:51.688Z,12.90
2019-03-20T20:05:20.197Z,11.80
2019-03-20T20:07:48.839Z,9.53
2019-03-20T20:10:18.461Z,12.97
2019-03-20T20:12:47.141Z,14.40
2019-03-20T20:15:24.304Z,10.57
2019-03-20T20:17:53.026Z,11.10
2019-03-20T20:20:29.745Z,10.20
2019-03-20T20:22:58.162Z,11.73
2019-03-20T20:25:26.582Z,11.20
2019-03-20T20:27:55.090Z,12.53
2019-03-20T20:30:23.536Z,11.53
2019-03-20T20:32:52.069Z,14.33
2019-03-20T20:35:20.563Z,8.77
2019-03-20T20:37:50.186Z,10.10
2019-03-20T20:40:31.253Z,10.60
2019-03-20T20:42:59.717Z,12.20
2019-03-20T20:45:28.193Z,8.83
2019-03-20T20:47:56.636Z,7.83
2019-03-20T20:50:25.199Z,10.30
2019-03-20T20:52:53.769Z,18.17
2019-03-20T20:55:23.040Z,32.77
2019-03-20T20:57:51.724Z,28.27
2019-03-20T21:00:23.877Z,37.20
2019-03-20T21:02:52.654Z,52.10
2019-03-20T21:05:21.237Z,20.67
2019-03-20T21:07:49.891Z,21.60
2019-03-20T21:10:24.280Z,17.70
2019-03-20T21:12:56.798Z,19.90
2019-03-20T21:15:37.180Z,14.83
2019-03-20T21:18:34.107Z,9.50
2019-03-20T21:21:02.522Z,10.13
2019-03-20T21:23:39.739Z,14.20
2019-03-20T21:26:12.861Z,26.70
2019-03-20T21:29:17.097Z,19.37
2019-03-20T21:31:54.557Z,25.20
2019-03-20T21:34:40.781Z,21.57
2019-03-20T21:37:23.762Z,23.20
2019-03-20T21:39:52.242Z,19.70
2019-03-20T21:42:32.626Z,18.43
2019-03-20T21:45:04.148Z,33.03
2019-03-20T21:47:35.219Z,29.37
2019-03-20T21:50:15.720Z,21.23
2019-03-20T21:52:44.169Z,15.80
2019-03-20T21:55:21.585Z,14.53
2019-03-20T21:57:53.438Z,10.47
2019-03-20T22:00:33.746Z,14.83
2019-03-20T22:03:02.225Z,14.80
2019-03-20T22:05:42.415Z,8.47
2019-03-20T22:08:10.853Z,13.40
2019-03-20T22:11:17.029Z,14.90
2019-03-20T22:13:48.799Z,14.87
2019-03-20T22:16:42.346Z,25.70
2019-03-20T22:19:31.530Z,39.17
2019-03-20T22:22:25.436Z,44.20
2019-03-20T22:25:20.196Z,35.77
2019-03-20T22:27:57.495Z,38.33
2019-03-20T22:30:25.963Z,32.53
2019-03-20T22:33:15.374Z,18.43
2019-03-20T22:35:47.259Z,25.73
2019-03-20T22:38:18.768Z,22.30
2019-03-20T22:41:12.745Z,18.47
2019-03-20T22:43:52.840Z,20.83
2019-03-20T22:46:40.849Z,13.07
2019-03-20T22:49:24.233Z,12.20
2019-03-20T22:52:07.558Z,8.57
2019-03-20T22:54:47.699Z,7.93
2019-03-20T22:57:25.217Z,10.50
2019-03-20T22:59:53.703Z,9.57
2019-03-20T23:02:25.209Z,7.70
2019-03-20T23:04:56.720Z,8.10
2019-03-20T23:07:25.160Z,10.60
2019-03-20T23:09:53.593Z,9.97
2019-03-20T23:12:22.176Z,11.27
2019-03-20T23:14:50.740Z,19.67
2019-03-20T23:17:19.191Z,12.83
2019-03-20T23:19:48.036Z,14.47
2019-03-20T23:22:16.560Z,17.07
2019-03-20T23:24:45.725Z,9.93
2019-03-20T23:27:20.127Z,11.70
2019-03-20T23:29:48.695Z,7.73
2019-03-20T23:32:17.174Z,12.13
2019-03-20T23:34:45.631Z,8.50
2019-03-20T23:37:14.069Z,9.53
2019-03-20T23:39:42.583Z,8.57
2019-03-20T23:42:11.019Z,8.23
2019-03-20T23:44:39.459Z,7.80
2019-03-20T23:47:07.858Z,7.60
2019-03-20T23:49:36.283Z,8.80
2019-03-20T23:52:04.772Z,7.70
2019-03-20T23:54:36.420Z,11.23
2019-03-20T23:57:04.831Z,11.67
2019-03-20T23:59:33.295Z,8.70
